createdAt,value
2023-03-21T00:00:57.736Z,7.60
2023-03-21T00:03:25.277Z,7.55
2023-03-21T00:05:53.744Z,7.58
2023-03-21T00:08:22.038Z,7.61
2023-03-21T00:10:56.280Z,7.58
2023-03-21T00:13:23.005Z,7.58
2023-03-21T00:16:05.485Z,7.60
2023-03-21T00:18:42.941Z,7.60
2023-03-21T00:24:00.574Z,7.49
2023-03-21T00:26:27.552Z,7.45
2023-03-21T00:28:54.187Z,7.51
2023-03-21T00:31:21.127Z,7.55
2023-03-21T00:33:49.669Z,7.53
2023-03-21T00:36:16.517Z,7.55
2023-03-21T00:38:43.195Z,7.56
2023-03-21T00:41:23.413Z,7.57
2023-03-21T00:43:58.346Z,7.57
2023-03-21T00:46:27.640Z,7.59
2023-03-21T00:48:56.983Z,7.57
2023-03-21T00:51:27.205Z,7.53
2023-03-21T00:53:55.687Z,7.55
2023-03-21T00:56:22.667Z,7.54
2023-03-21T00:58:49.689Z,7.56
2023-03-21T01:01:16.684Z,7.61
2023-03-21T01:03:47.923Z,7.60
2023-03-21T01:06:19.365Z,7.63
2023-03-21T01:08:54.785Z,7.62
2023-03-21T01:11:24.879Z,7.66
2023-03-21T01:13:59.837Z,7.69
2023-03-21T01:16:31.767Z,7.69
2023-03-21T01:18:59.630Z,7.71
2023-03-21T01:21:26.538Z,7.76
2023-03-21T01:23:53.168Z,7.80
2023-03-21T01:26:20.044Z,7.78
2023-03-21T01:28:46.901Z,7.77
2023-03-21T01:31:15.224Z,7.78
2023-03-21T01:33:42.310Z,7.79
2023-03-21T01:36:14.824Z,7.78
2023-03-21T01:38:42.780Z,7.78
2023-03-21T01:41:33.681Z,7.77
2023-03-21T01:44:16.298Z,7.77
2023-03-21T01:47:03.675Z,7.81
2023-03-21T01:50:03.218Z,7.83
2023-03-21T01:52:46.693Z,7.84
2023-03-21T01:55:18.218Z,7.84
2023-03-21T01:58:05.973Z,7.86
2023-03-21T02:00:56.851Z,7.79
2023-03-21T02:03:50.602Z,7.77
2023-03-21T02:06:49.555Z,7.71
2023-03-21T02:09:37.399Z,7.65
2023-03-21T02:12:10.424Z,7.61
2023-03-21T02:14:38.974Z,7.60
2023-03-21T02:17:38.175Z,7.55
2023-03-21T02:20:54.402Z,7.52
2023-03-21T02:23:45.605Z,7.55
2023-03-21T02:26:48.240Z,7.55
2023-03-21T02:29:50.233Z,7.56
2023-03-21T02:32:37.369Z,7.59
2023-03-21T02:35:28.323Z,7.60
2023-03-21T02:38:01.869Z,7.64
2023-03-21T02:40:42.840Z,7.66
2023-03-21T02:43:23.018Z,7.66
2023-03-21T02:46:01.586Z,7.65
2023-03-21T02:48:50.966Z,7.64
2023-03-21T02:51:21.735Z,7.66
2023-03-21T02:54:21.992Z,7.62
2023-03-21T02:56:43.105Z,7.60
2023-03-21T02:59:10.733Z,7.63
2023-03-21T03:01:37.739Z,7.57
2023-03-21T03:04:04.834Z,7.55
2023-03-21T03:06:49.516Z,7.62
2023-03-21T03:09:39.355Z,7.65
2023-03-21T03:12:32.191Z,7.61
2023-03-21T03:15:04.173Z,7.62
2023-03-21T03:18:07.984Z,7.58
2023-03-21T03:21:12.107Z,7.59
2023-03-21T03:23:44.479Z,7.60
2023-03-21T03:26:17.626Z,7.61
2023-03-21T03:28:52.365Z,7.62
2023-03-21T03:31:26.132Z,7.60
2023-03-21T03:34:03.425Z,7.62
2023-03-21T03:36:35.952Z,7.62
2023-03-21T03:39:10.340Z,7.59
2023-03-21T03:42:27.666Z,7.58
2023-03-21T03:44:51.841Z,7.58
2023-03-21T03:47:55.957Z,7.57
2023-03-21T03:50:34.403Z,7.54
2023-03-21T03:53:18.443Z,7.47
2023-03-21T03:55:49.173Z,7.42
2023-03-21T03:58:23.895Z,7.41
2023-03-21T04:00:54.414Z,7.37
2023-03-21T04:03:22.049Z,7.40
2023-03-21T04:05:49.270Z,7.45
2023-03-21T04:08:17.335Z,7.50
2023-03-21T04:10:48.946Z,7.55
2023-03-21T04:13:15.817Z,7.58
2023-03-21T04:15:48.445Z,7.59
2023-03-21T04:18:16.316Z,7.56
2023-03-21T04:20:45.086Z,7.53
2023-03-21T04:23:12.839Z,7.54
2023-03-21T04:25:55.774Z,7.57
2023-03-21T04:28:28.145Z,7.65
2023-03-21T04:31:13.560Z,7.69
2023-03-21T04:33:51.211Z,7.68
2023-03-21T04:36:30.581Z,7.69
2023-03-21T04:39:01.522Z,7.70
2023-03-21T04:41:29.548Z,7.68
2023-03-21T04:43:56.831Z,7.69
2023-03-21T04:46:24.171Z,7.65
2023-03-21T04:48:51.338Z,7.60
2023-03-21T04:51:17.963Z,7.48
2023-03-21T04:53:45.989Z,7.39
2023-03-21T04:56:13.138Z,7.27
2023-03-21T04:58:40.715Z,7.17
2023-03-21T05:01:08.243Z,7.09
2023-03-21T05:03:40.044Z,7.05
2023-03-21T05:06:08.643Z,7.07
2023-03-21T05:08:36.072Z,7.02
2023-03-21T05:11:03.993Z,7.04
2023-03-21T05:13:30.703Z,7.02
2023-03-21T05:15:57.266Z,6.96
2023-03-21T05:18:27.439Z,6.95
2023-03-21T05:21:04.266Z,6.96
2023-03-21T05:23:31.760Z,7.05
2023-03-21T05:25:58.731Z,7.16
2023-03-21T05:28:37.539Z,7.26
2023-03-21T05:31:04.838Z,7.35
2023-03-21T05:33:31.867Z,7.44
2023-03-21T05:35:58.772Z,7.54
2023-03-21T05:38:29.244Z,7.61
2023-03-21T05:40:55.870Z,7.71
2023-03-21T05:43:23.731Z,7.73
2023-03-21T05:45:51.164Z,7.73
2023-03-21T05:48:19.308Z,7.70
2023-03-21T05:51:04.547Z,7.71
2023-03-21T05:53:31.380Z,7.77
2023-03-21T05:55:58.294Z,7.83
2023-03-21T05:58:41.556Z,7.90
2023-03-21T06:01:08.369Z,7.92
2023-03-21T06:03:37.309Z,7.93
2023-03-21T06:06:12.763Z,7.97
2023-03-21T06:08:46.525Z,8.01
2023-03-21T06:11:23.361Z,8.03
2023-03-21T06:13:53.384Z,8.12
2023-03-21T06:16:22.814Z,8.16
2023-03-21T06:18:49.557Z,8.21
2023-03-21T06:21:31.234Z,8.28
2023-03-21T06:23:57.859Z,8.30
2023-03-21T06:26:24.438Z,8.31
2023-03-21T06:28:53.550Z,8.29
2023-03-21T06:31:22.780Z,8.37
2023-03-21T06:33:51.726Z,8.44
2023-03-21T06:36:19.169Z,8.44
2023-03-21T06:38:46.982Z,8.47
2023-03-21T06:41:13.763Z,8.42
2023-03-21T06:43:45.343Z,8.46
2023-03-21T06:46:12.293Z,8.50
2023-03-21T06:48:44.385Z,8.50
2023-03-21T06:51:13.077Z,8.68
2023-03-21T06:53:46.674Z,8.77
2023-03-21T06:56:48.666Z,8.74
2023-03-21T06:59:22.681Z,8.76
2023-03-21T07:02:12.674Z,8.86
2023-03-21T07:04:45.372Z,8.84
2023-03-21T07:07:17.415Z,8.86
2023-03-21T07:09:44.185Z,9.03
2023-03-21T07:12:11.112Z,9.00
2023-03-21T07:14:54.906Z,9.00
2023-03-21T07:17:21.763Z,9.06
2023-03-21T07:19:48.358Z,9.09
2023-03-21T07:22:17.968Z,9.30
2023-03-21T07:24:55.827Z,9.33
2023-03-21T07:27:29.256Z,9.34
2023-03-21T07:29:56.136Z,9.32
2023-03-21T07:32:22.914Z,9.37
2023-03-21T07:34:50.032Z,9.51
2023-03-21T07:37:16.867Z,9.60
2023-03-21T07:39:43.484Z,9.57
2023-03-21T07:42:11.909Z,9.54
2023-03-21T07:44:39.527Z,9.58
2023-03-21T07:47:06.181Z,9.50
2023-03-21T07:49:33.150Z,9.44
2023-03-21T07:52:04.284Z,9.41
2023-03-21T07:54:31.602Z,9.29
2023-03-21T07:56:59.314Z,9.26
2023-03-21T07:59:26.030Z,9.36
2023-03-21T08:01:52.678Z,9.46
2023-03-21T08:04:19.272Z,9.53
2023-03-21T08:06:45.952Z,9.64
2023-03-21T08:09:12.623Z,9.45
2023-03-21T08:11:40.244Z,9.51
2023-03-21T08:14:07.120Z,9.37
2023-03-21T08:16:33.777Z,9.31
2023-03-21T08:19:00.706Z,9.27
2023-03-21T08:21:27.607Z,9.36
2023-03-21T08:23:54.256Z,9.42
2023-03-21T08:26:21.415Z,9.47
2023-03-21T08:28:48.025Z,9.42
2023-03-21T08:31:15.099Z,9.47
2023-03-21T08:33:41.730Z,9.59
2023-03-21T08:36:08.955Z,9.47
2023-03-21T08:38:36.009Z,9.51
2023-03-21T08:41:03.322Z,9.48
2023-03-21T08:43:30.275Z,9.45
2023-03-21T08:45:56.958Z,9.43
2023-03-21T08:48:23.688Z,9.47
2023-03-21T08:50:50.378Z,9.50
2023-03-21T08:53:16.986Z,9.49
2023-03-21T08:55:44.515Z,9.51
2023-03-21T08:58:11.383Z,9.39
2023-03-21T09:00:38.050Z,9.52
2023-03-21T09:03:05.060Z,9.35
2023-03-21T09:05:31.884Z,9.46
2023-03-21T09:07:58.535Z,9.67
2023-03-21T09:10:25.367Z,9.67
2023-03-21T09:12:54.179Z,9.57
2023-03-21T09:15:24.522Z,9.55
2023-03-21T09:17:54.241Z,9.59
2023-03-21T09:20:31.090Z,9.57
2023-03-21T09:22:59.170Z,9.49
2023-03-21T09:25:29.510Z,9.49
2023-03-21T09:27:56.736Z,9.50
2023-03-21T09:30:26.112Z,9.52
2023-03-21T09:32:55.264Z,9.42
2023-03-21T09:35:22.686Z,9.26
2023-03-21T09:37:50.099Z,9.18
2023-03-21T09:40:29.135Z,9.17
2023-03-21T09:43:03.133Z,9.33
2023-03-21T09:46:10.263Z,9.41
2023-03-21T09:48:54.371Z,9.39
2023-03-21T09:51:24.380Z,9.56
2023-03-21T09:53:55.925Z,9.50
2023-03-21T09:56:26.091Z,9.56
2023-03-21T09:58:59.407Z,9.56
2023-03-21T10:01:33.067Z,9.65
2023-03-21T10:04:08.032Z,9.77
2023-03-21T10:06:40.298Z,9.86
2023-03-21T10:09:22.894Z,9.79
2023-03-21T10:11:55.471Z,9.83
2023-03-21T10:14:27.547Z,9.81
2023-03-21T10:17:00.673Z,9.99
2023-03-21T10:19:28.842Z,10.03
2023-03-21T10:22:01.384Z,10.05
2023-03-21T10:24:33.791Z,10.00
2023-03-21T10:27:01.683Z,10.01
2023-03-21T10:29:32.985Z,10.05
2023-03-21T10:32:00.525Z,10.07
2023-03-21T10:34:42.017Z,10.10
2023-03-21T10:37:08.830Z,10.26
2023-03-21T10:39:44.830Z,10.24
2023-03-21T10:42:19.872Z,10.05
2023-03-21T10:44:49.717Z,9.97
2023-03-21T10:47:38.510Z,9.99
2023-03-21T10:50:09.572Z,10.06
2023-03-21T10:52:42.015Z,10.29
2023-03-21T10:55:25.833Z,10.39
2023-03-21T10:57:57.681Z,10.36
2023-03-21T11:00:37.105Z,10.27
2023-03-21T11:03:05.424Z,10.32
2023-03-21T11:05:38.701Z,10.28
2023-03-21T11:08:18.055Z,10.18
2023-03-21T11:11:00.696Z,10.06
2023-03-21T11:13:55.515Z,9.85
2023-03-21T11:16:32.131Z,9.93
2023-03-21T11:19:12.491Z,9.96
2023-03-21T11:21:39.461Z,10.11
2023-03-21T11:24:08.173Z,10.17
2023-03-21T11:26:37.616Z,10.18
2023-03-21T11:29:39.317Z,10.30
2023-03-21T11:32:29.975Z,10.24
2023-03-21T11:35:14.190Z,10.37
2023-03-21T11:37:47.101Z,10.44
2023-03-21T11:40:23.953Z,10.36
2023-03-21T11:42:53.672Z,10.29
2023-03-21T11:45:27.492Z,10.20
2023-03-21T11:47:56.523Z,9.98
2023-03-21T11:50:39.875Z,9.89
2023-03-21T11:53:15.616Z,9.82
2023-03-21T11:56:03.346Z,9.69
2023-03-21T11:58:37.489Z,9.83
2023-03-21T12:01:27.633Z,9.87
2023-03-21T12:04:17.377Z,9.90
2023-03-21T12:06:55.110Z,9.87
2023-03-21T12:09:42.024Z,9.95
2023-03-21T12:12:38.268Z,9.82
2023-03-21T12:15:26.792Z,9.70
2023-03-21T12:18:08.472Z,9.80
2023-03-21T12:20:48.261Z,9.79
2023-03-21T12:23:20.784Z,9.72
2023-03-21T12:25:56.400Z,9.59
2023-03-21T12:28:36.284Z,9.52
2023-03-21T12:31:14.646Z,9.44
2023-03-21T12:33:47.071Z,9.45
2023-03-21T12:36:19.803Z,9.50
2023-03-21T12:38:58.045Z,9.62
2023-03-21T12:41:40.272Z,9.53
2023-03-21T12:44:14.936Z,9.55
2023-03-21T12:46:54.702Z,9.60
2023-03-21T12:49:36.003Z,9.56
2023-03-21T12:52:11.163Z,9.68
2023-03-21T12:54:42.724Z,9.76
2023-03-21T12:57:56.343Z,9.93
2023-03-21T13:00:39.755Z,9.80
2023-03-21T13:03:27.712Z,9.82
2023-03-21T13:06:05.777Z,9.67
2023-03-21T13:08:42.019Z,9.54
2023-03-21T13:11:14.148Z,9.56
2023-03-21T13:13:49.537Z,9.44
2023-03-21T13:16:28.234Z,9.49
2023-03-21T13:19:28.119Z,9.70
2023-03-21T13:22:18.429Z,9.83
2023-03-21T13:25:15.606Z,9.90
2023-03-21T13:27:44.134Z,9.85
2023-03-21T13:30:28.366Z,9.89
2023-03-21T13:33:14.484Z,9.79
2023-03-21T13:35:44.431Z,9.81
2023-03-21T13:38:22.867Z,9.85
2023-03-21T13:40:58.553Z,10.02
2023-03-21T13:43:54.364Z,10.30
2023-03-21T13:46:26.927Z,10.30
2023-03-21T13:48:58.951Z,10.16
2023-03-21T13:51:29.021Z,10.11
2023-03-21T13:54:07.732Z,10.15
2023-03-21T13:56:52.489Z,10.28
2023-03-21T13:59:36.907Z,10.29
2023-03-21T14:02:15.240Z,10.42
2023-03-21T14:04:54.180Z,10.34
2023-03-21T14:07:45.513Z,10.42
2023-03-21T14:10:35.124Z,10.49
2023-03-21T14:13:04.907Z,10.61
2023-03-21T14:15:40.856Z,10.66
2023-03-21T14:18:35.274Z,10.62
2023-03-21T14:21:23.281Z,10.61
2023-03-21T14:24:02.122Z,10.59
2023-03-21T14:26:40.891Z,10.53
2023-03-21T14:29:24.719Z,10.62
2023-03-21T14:31:54.666Z,10.70
2023-03-21T14:34:22.387Z,10.55
2023-03-21T14:36:57.580Z,10.60
2023-03-21T14:39:29.811Z,10.73
2023-03-21T14:42:04.144Z,10.63
2023-03-21T14:44:53.549Z,10.59
2023-03-21T14:47:28.886Z,10.53
2023-03-21T14:49:57.082Z,10.54
2023-03-21T14:52:29.383Z,10.48
2023-03-21T14:54:56.875Z,10.39
2023-03-21T14:57:28.680Z,10.26
2023-03-21T14:59:59.445Z,10.19
2023-03-21T15:02:32.422Z,10.13
2023-03-21T15:05:08.958Z,10.21
2023-03-21T15:07:36.427Z,10.35
2023-03-21T15:10:18.670Z,10.42
2023-03-21T15:12:56.757Z,10.46
2023-03-21T15:15:27.619Z,10.51
2023-03-21T15:18:05.163Z,10.46
2023-03-21T15:20:35.317Z,10.38
2023-03-21T15:23:09.395Z,10.40
2023-03-21T15:25:37.643Z,10.34
2023-03-21T15:28:06.522Z,10.39
2023-03-21T15:30:34.304Z,10.37
2023-03-21T15:33:10.320Z,10.41
2023-03-21T15:35:43.841Z,10.42
2023-03-21T15:38:41.114Z,10.15
2023-03-21T15:41:19.750Z,10.07
2023-03-21T15:43:59.329Z,9.98
2023-03-21T15:46:44.452Z,10.03
2023-03-21T15:49:16.637Z,10.02
2023-03-21T15:51:53.940Z,10.04
2023-03-21T15:54:25.933Z,9.98
2023-03-21T15:57:09.236Z,10.01
2023-03-21T15:59:41.223Z,10.07
2023-03-21T16:02:23.315Z,10.18
2023-03-21T16:04:58.432Z,10.24
2023-03-21T16:07:26.144Z,10.20
2023-03-21T16:10:01.625Z,10.31
2023-03-21T16:12:28.272Z,10.20
2023-03-21T16:14:55.587Z,10.29
2023-03-21T16:17:24.071Z,10.26
2023-03-21T16:19:51.290Z,10.28
2023-03-21T16:22:19.885Z,10.32
2023-03-21T16:24:46.497Z,10.37
2023-03-21T16:27:13.122Z,10.25
2023-03-21T16:29:39.742Z,10.30
2023-03-21T16:32:14.767Z,10.39
2023-03-21T16:34:42.792Z,10.36
2023-03-21T16:37:15.865Z,10.20
2023-03-21T16:39:43.113Z,10.10
2023-03-21T16:42:11.987Z,10.04
2023-03-21T16:44:40.657Z,10.14
2023-03-21T16:47:19.843Z,10.07
2023-03-21T16:49:47.042Z,10.10
2023-03-21T16:52:14.869Z,10.19
2023-03-21T16:54:42.583Z,10.17
2023-03-21T16:57:27.643Z,10.24
2023-03-21T16:59:56.010Z,10.29
2023-03-21T17:02:24.822Z,10.23
2023-03-21T17:04:51.566Z,10.16
2023-03-21T17:07:18.827Z,10.05
2023-03-21T17:09:45.464Z,10.01
2023-03-21T17:12:15.293Z,10.02
2023-03-21T17:14:43.551Z,10.04
2023-03-21T17:17:12.171Z,10.14
2023-03-21T17:19:39.303Z,10.06
2023-03-21T17:22:06.124Z,9.90
2023-03-21T17:24:33.511Z,9.80
2023-03-21T17:27:01.784Z,9.74
2023-03-21T17:29:28.512Z,9.57
2023-03-21T17:31:55.197Z,9.44
2023-03-21T17:34:21.836Z,9.33
2023-03-21T17:36:49.158Z,9.24
2023-03-21T17:39:24.306Z,9.16
2023-03-21T17:41:52.096Z,9.11
2023-03-21T17:44:20.017Z,8.98
2023-03-21T17:46:47.178Z,8.85
2023-03-21T17:49:16.405Z,8.81
2023-03-21T17:51:43.467Z,8.76
2023-03-21T17:54:10.158Z,8.82
2023-03-21T17:56:41.703Z,8.83
2023-03-21T17:59:12.745Z,8.84
2023-03-21T18:01:39.647Z,8.78
2023-03-21T18:04:06.298Z,8.70
2023-03-21T18:06:34.634Z,8.65
2023-03-21T18:09:06.917Z,8.61
2023-03-21T18:11:33.658Z,8.53
2023-03-21T18:14:15.012Z,8.54
2023-03-21T18:16:42.571Z,8.45
2023-03-21T18:19:10.946Z,8.34
2023-03-21T18:21:40.561Z,8.32
2023-03-21T18:24:07.592Z,8.34
2023-03-21T18:26:34.307Z,8.33
2023-03-21T18:32:04.516Z,8.32
2023-03-21T18:34:32.851Z,8.36
2023-03-21T18:36:59.690Z,8.41
2023-03-21T18:39:28.848Z,8.40
2023-03-21T18:41:59.768Z,8.52
2023-03-21T18:44:29.293Z,8.56
2023-03-21T18:46:57.488Z,8.54
2023-03-21T18:50:09.786Z,8.49
2023-03-21T18:52:12.396Z,8.49
2023-03-21T18:54:39.615Z,8.52
2023-03-21T18:59:56.641Z,8.62
2023-03-21T19:02:23.261Z,8.65
2023-03-21T19:04:49.920Z,8.71
2023-03-21T19:07:16.544Z,8.81
2023-03-21T19:10:01.906Z,8.86
2023-03-21T19:12:30.285Z,8.92
2023-03-21T19:14:56.985Z,8.99
2023-03-21T19:20:11.961Z,8.99
2023-03-21T19:22:38.563Z,9.00
2023-03-21T19:25:05.898Z,9.03
2023-03-21T19:27:34.228Z,9.05
2023-03-21T19:30:14.286Z,9.04
2023-03-21T19:32:41.813Z,9.11
2023-03-21T19:35:09.339Z,9.10
2023-03-21T19:37:38.791Z,9.07
2023-03-21T19:40:07.045Z,9.07
2023-03-21T19:42:36.255Z,9.05
2023-03-21T19:45:05.386Z,9.07
2023-03-21T19:47:32.073Z,9.09
2023-03-21T19:52:46.164Z,9.11
2023-03-21T19:55:14.870Z,9.14
2023-03-21T19:57:41.958Z,9.14
2023-03-21T20:00:11.291Z,9.15
2023-03-21T20:02:38.635Z,9.16
2023-03-21T20:05:07.800Z,9.15
2023-03-21T20:07:34.912Z,9.16
2023-03-21T20:10:01.579Z,9.11
2023-03-21T20:12:28.738Z,9.09
2023-03-21T20:15:10.232Z,9.13
2023-03-21T20:17:43.044Z,9.16
2023-03-21T20:20:10.254Z,9.12
2023-03-21T20:23:05.342Z,9.11
2023-03-21T20:25:24.576Z,9.09
2023-03-21T20:28:07.299Z,9.06
2023-03-21T20:30:38.375Z,9.03
2023-03-21T20:33:05.195Z,8.94
2023-03-21T20:36:23.077Z,8.90
2023-03-21T20:38:20.526Z,8.82
2023-03-21T20:40:48.019Z,8.74
2023-03-21T20:44:04.895Z,8.72
2023-03-21T20:46:04.003Z,8.68
2023-03-21T20:48:31.179Z,8.63
2023-03-21T20:51:25.033Z,8.64
2023-03-21T20:53:48.948Z,8.62
2023-03-21T20:56:15.817Z,8.62
2023-03-21T20:59:02.116Z,8.65
2023-03-21T21:01:29.117Z,8.57
2023-03-21T21:03:57.534Z,8.49
2023-03-21T21:06:24.449Z,8.40
2023-03-21T21:08:51.138Z,8.26
2023-03-21T21:12:02.981Z,8.19
2023-03-21T21:14:05.405Z,8.11
2023-03-21T21:16:32.092Z,8.05
2023-03-21T21:18:59.493Z,7.93
2023-03-21T21:21:27.755Z,7.88
2023-03-21T21:23:54.375Z,7.84
2023-03-21T21:26:20.956Z,7.74
2023-03-21T21:28:47.822Z,7.59
2023-03-21T21:31:16.700Z,7.49
2023-03-21T21:33:44.912Z,7.48
2023-03-21T21:36:12.955Z,7.54
2023-03-21T21:38:40.929Z,7.58
2023-03-21T21:41:08.714Z,7.52
2023-03-21T21:43:35.726Z,7.47
2023-03-21T21:46:02.539Z,7.41
2023-03-21T21:48:29.195Z,7.28
2023-03-21T21:50:55.836Z,7.24
2023-03-21T21:53:22.787Z,7.15
2023-03-21T21:55:49.772Z,7.04
2023-03-21T21:58:18.646Z,7.12
2023-03-21T22:00:46.392Z,7.25
2023-03-21T22:03:14.319Z,7.22
2023-03-21T22:05:41.245Z,7.24
2023-03-21T22:08:10.533Z,7.30
2023-03-21T22:10:37.532Z,7.27
2023-03-21T22:13:04.314Z,7.21
2023-03-21T22:15:31.252Z,7.29
2023-03-21T22:17:57.907Z,7.25
2023-03-21T22:20:24.487Z,7.25
2023-03-21T22:22:51.083Z,7.31
2023-03-21T22:25:18.042Z,7.34
2023-03-21T22:27:44.882Z,7.21
2023-03-21T22:30:17.232Z,7.24
2023-03-21T22:32:45.359Z,7.25
2023-03-21T22:35:12.301Z,7.31
2023-03-21T22:37:41.246Z,7.31
2023-03-21T22:40:10.841Z,7.29
2023-03-21T22:42:37.836Z,7.28
2023-03-21T22:45:06.163Z,7.25
2023-03-21T22:47:33.240Z,7.17
2023-03-21T22:50:00.031Z,7.08
2023-03-21T22:52:27.109Z,6.97
2023-03-21T22:54:53.700Z,6.97
2023-03-21T22:57:20.921Z,6.92
2023-03-21T22:59:47.518Z,6.85
2023-03-21T23:02:14.693Z,6.72
2023-03-21T23:04:41.929Z,6.55
2023-03-21T23:07:08.587Z,6.51
2023-03-21T23:09:35.501Z,6.41
2023-03-21T23:12:02.330Z,6.30
2023-03-21T23:14:28.980Z,6.29
2023-03-21T23:17:00.116Z,6.19
2023-03-21T23:19:28.750Z,6.21
2023-03-21T23:21:59.009Z,6.13
2023-03-21T23:24:25.778Z,6.19
2023-03-21T23:26:52.906Z,6.14
2023-03-21T23:29:19.890Z,6.12
2023-03-21T23:31:46.962Z,6.10
2023-03-21T23:34:13.716Z,6.16
2023-03-21T23:36:40.775Z,6.26
2023-03-21T23:39:08.372Z,6.29
2023-03-21T23:41:35.421Z,6.37
2023-03-21T23:44:02.091Z,6.51
2023-03-21T23:46:28.744Z,6.55
2023-03-21T23:48:55.481Z,6.70
2023-03-21T23:51:22.108Z,6.79
2023-03-21T23:53:48.720Z,6.86
2023-03-21T23:56:25.399Z,6.87
2023-03-21T23:58:52.750Z,6.91
